Time;durP1;ratioP1;P1;durP2;ratioP2;P2;SDS_P1;SDS_P2;PMS_P1;PMS_P2;Temp;Humidity;BMP_temperature;BMP_pressure;BME280_temperature;BME280_humidity;BME280_pressure;Samples;Min_cycle;Max_cycle;Signal;HPM_P1;HPM_P2
2023/05/11 00:01:13;;;;;;;3.33;0.93;;;;;;;;;;5025200;28;20044;-39
2023/05/11 00:03:38;;;;;;;2.20;1.00;;;;;;;;;;5019957;28;20026;-44
2023/05/11 00:06:03;;;;;;;1.25;0.70;;;;;;;;;;5024953;28;20041;-44
2023/05/11 00:08:29;;;;;;;4.32;0.90;;;;;;;;;;5024914;28;20053;-43
2023/05/11 00:10:54;;;;;;;6.50;0.85;;;;;;;;;;5023133;28;20030;-46
2023/05/11 00:13:20;;;;;;;1.77;0.95;;;;;;;;;;5025785;28;20030;-40
2023/05/11 00:15:45;;;;;;;2.17;1.13;;;;;;;;;;5021164;28;20033;-43
2023/05/11 00:18:11;;;;;;;2.50;0.82;;;;;;;;;;5024851;28;20685;-42
2023/05/11 00:20:36;;;;;;;2.38;1.10;;;;;;;;;;5025064;28;20044;-46
2023/05/11 00:23:02;;;;;;;2.38;0.90;;;;;;;;;;5025609;28;20041;-46
2023/05/11 00:25:27;;;;;;;1.05;0.75;;;;;;;;;;5022907;28;20068;-43
2023/05/11 00:27:52;;;;;;;1.50;0.90;;;;;;;;;;5022789;28;20108;-43
2023/05/11 00:30:18;;;;;;;1.20;0.80;;;;;;;;;;5022742;28;20052;-44
2023/05/11 00:32:43;;;;;;;2.35;0.52;;;;;;;;;;5024822;28;20092;-39
2023/05/11 00:35:13;;;;;;;0.63;0.50;;;;;;;;;;5024129;28;20057;-41
2023/05/11 00:37:38;;;;;;;1.60;0.80;;;;;;;;;;5022112;28;20073;-40
2023/05/11 00:40:05;;;;;;;1.45;1.02;;;;;;;;;;5024207;28;20067;-39
2023/05/11 00:42:30;;;;;;;4.90;0.90;;;;;;;;;;5023368;28;20053;-40
2023/05/11 00:44:56;;;;;;;3.60;0.95;;;;;;;;;;5024111;28;20025;-39
2023/05/11 00:47:21;;;;;;;2.28;0.70;;;;;;;;;;5024578;28;20080;-39
2023/05/11 00:49:49;;;;;;;0.82;0.60;;;;;;;;;;5024255;28;20112;-43
2023/05/11 00:52:14;;;;;;;2.30;1.05;;;;;;;;;;5024899;28;20163;-40
2023/05/11 00:54:40;;;;;;;2.72;1.10;;;;;;;;;;5024708;28;20033;-39
2023/05/11 00:57:06;;;;;;;3.08;0.90;;;;;;;;;;5022722;28;20045;-40
2023/05/11 00:59:31;;;;;;;2.15;0.73;;;;;;;;;;5024349;28;20437;-41
2023/05/11 01:01:57;;;;;;;2.22;0.65;;;;;;;;;;5025731;28;20055;-40
2023/05/11 01:04:22;;;;;;;1.85;0.50;;;;;;;;;;5021867;28;20505;-42
2023/05/11 01:06:48;;;;;;;1.05;0.57;;;;;;;;;;5024726;28;21366;-41
2023/05/11 01:09:25;;;;;;;2.35;0.90;;;;;;;;;;5025365;28;20040;-39
2023/05/11 01:11:59;;;;;;;1.42;0.60;;;;;;;;;;5020396;28;20087;-41
2023/05/11 01:14:36;;;;;;;3.65;0.63;;;;;;;;;;5017970;28;20025;-40
2023/05/11 01:17:08;;;;;;;0.90;0.65;;;;;;;;;;5020380;28;20136;-43
2023/05/11 01:19:33;;;;;;;;;;;;;;;;;;5022347;28;20035;-40
2023/05/11 01:22:06;;;;;;;0.98;0.63;;;;;;;;;;5024842;28;19921;-40
2023/05/11 01:24:50;;;;;;;2.10;0.85;;;;;;;;;;5018627;28;20040;-45
2023/05/11 01:27:33;;;;;;;1.08;0.55;;;;;;;;;;5020190;28;20502;-43
2023/05/11 01:30:24;;;;;;;2.10;0.73;;;;;;;;;;5026243;28;20036;-40
2023/05/11 01:32:51;;;;;;;1.25;0.77;;;;;;;;;;5022623;28;20041;-40
2023/05/11 01:35:18;;;;;;;0.50;0.50;;;;;;;;;;5023992;28;20037;-42
2023/05/11 01:37:50;;;;;;;1.27;0.80;;;;;;;;;;5022754;28;20082;-40
2023/05/11 01:40:20;;;;;;;1.30;0.63;;;;;;;;;;5021292;28;20037;-39
2023/05/11 01:42:53;;;;;;;1.77;1.00;;;;;;;;;;5024712;28;20517;-42
2023/05/11 01:45:21;;;;;;;1.25;0.80;;;;;;;;;;5024303;28;20068;-39
2023/05/11 01:47:49;;;;;;;0.45;0.43;;;;;;;;;;5026237;28;20112;-40
2023/05/11 01:50:18;;;;;;;0.50;0.50;;;;;;;;;;5024349;28;20025;-41
2023/05/11 01:52:45;;;;;;;1.38;0.63;;;;;;;;;;5022848;28;20017;-41
2023/05/11 01:55:12;;;;;;;1.08;0.70;;;;;;;;;;5024620;28;20135;-42
2023/05/11 01:57:38;;;;;;;1.73;0.68;;;;;;;;;;5022745;28;20054;-42
2023/05/11 02:00:05;;;;;;;0.88;0.40;;;;;;;;;;5021901;28;20069;-39
2023/05/11 02:02:31;;;;;;;2.15;0.57;;;;;;;;;;5021848;28;20048;-40
2023/05/11 02:04:59;;;;;;;1.17;0.50;;;;;;;;;;5019212;28;20042;-42
2023/05/11 02:07:26;;;;;;;1.75;0.60;;;;;;;;;;5022841;28;20076;-40
2023/05/11 02:09:52;;;;;;;0.75;0.38;;;;;;;;;;5022461;28;20092;-43
2023/05/11 02:12:19;;;;;;;0.50;0.43;;;;;;;;;;5021354;28;20390;-41
2023/05/11 02:14:46;;;;;;;0.82;0.40;;;;;;;;;;5022930;28;20554;-41
2023/05/11 02:17:12;;;;;;;1.60;0.60;;;;;;;;;;5023777;28;20118;-41
2023/05/11 02:19:40;;;;;;;0.95;0.50;;;;;;;;;;5020627;28;20421;-40
2023/05/11 02:22:08;;;;;;;2.80;0.70;;;;;;;;;;5022084;28;20270;-41
2023/05/11 02:24:34;;;;;;;0.35;0.35;;;;;;;;;;5022936;28;20525;-40
2023/05/11 02:27:00;;;;;;;0.90;0.47;;;;;;;;;;5021462;28;20037;-41
2023/05/11 02:29:26;;;;;;;0.85;0.38;;;;;;;;;;5020128;28;20445;-42
2023/05/11 02:32:07;;;;;;;1.17;0.52;;;;;;;;;;5019368;28;20049;-46
2023/05/11 02:34:40;;;;;;;0.50;0.43;;;;;;;;;;5025290;28;20032;-46
2023/05/11 02:37:10;;;;;;;2.47;0.50;;;;;;;;;;5020045;28;20041;-40
2023/05/11 02:39:37;;;;;;;0.85;0.50;;;;;;;;;;5022978;28;20029;-47
2023/05/11 02:42:12;;;;;;;0.57;0.57;;;;;;;;;;5020675;28;20116;-45
2023/05/11 02:44:39;;;;;;;1.92;0.60;;;;;;;;;;5022558;28;20056;-40
2023/05/11 02:47:08;;;;;;;0.70;0.50;;;;;;;;;;5023327;28;20037;-42
2023/05/11 02:49:36;;;;;;;1.08;0.63;;;;;;;;;;5023883;28;20018;-41
2023/05/11 02:52:04;;;;;;;1.13;0.60;;;;;;;;;;5022015;28;20042;-45
2023/05/11 02:54:31;;;;;;;3.30;0.30;;;;;;;;;;5022480;28;20033;-46
2023/05/11 02:56:56;;;;;;;0.43;0.40;;;;;;;;;;5020027;28;20037;-41
2023/05/11 02:59:23;;;;;;;0.88;0.40;;;;;;;;;;5020084;28;20049;-42
2023/05/11 03:01:49;;;;;;;2.00;0.47;;;;;;;;;;5022547;28;20041;-45
2023/05/11 03:04:14;;;;;;;1.85;0.50;;;;;;;;;;5022998;28;20053;-41
2023/05/11 03:06:40;;;;;;;1.17;0.50;;;;;;;;;;5023129;28;20073;-45
2023/05/11 03:09:06;;;;;;;0.57;0.50;;;;;;;;;;5022593;28;20045;-43
2023/05/11 03:11:32;;;;;;;2.53;0.52;;;;;;;;;;5025113;28;20091;-45
2023/05/11 03:13:57;;;;;;;1.52;0.60;;;;;;;;;;5019348;28;20061;-45
2023/05/11 03:16:23;;;;;;;0.63;0.40;;;;;;;;;;5019927;28;20612;-42
2023/05/11 03:18:49;;;;;;;1.35;0.40;;;;;;;;;;5021201;28;20375;-44
2023/05/11 03:21:19;;;;;;;0.82;0.60;;;;;;;;;;5021931;28;20046;-43
2023/05/11 03:23:46;;;;;;;2.53;1.02;;;;;;;;;;5020707;28;20037;-40
2023/05/11 03:26:13;;;;;;;2.70;0.73;;;;;;;;;;5020393;28;20037;-41
2023/05/11 03:28:42;;;;;;;0.95;0.65;;;;;;;;;;5023721;28;20498;-42
2023/05/11 03:31:08;;;;;;;0.38;0.30;;;;;;;;;;5018816;28;20049;-42
2023/05/11 03:33:33;;;;;;;2.55;0.60;;;;;;;;;;5021913;28;20038;-45
2023/05/11 03:36:01;;;;;;;0.38;0.38;;;;;;;;;;5022719;28;20041;-46
2023/05/11 03:38:27;;;;;;;1.48;0.55;;;;;;;;;;5018493;28;20037;-43
2023/05/11 03:40:54;;;;;;;2.40;0.70;;;;;;;;;;5020023;28;20038;-44
2023/05/11 03:43:20;;;;;;;0.43;0.43;;;;;;;;;;5022396;28;20412;-47
2023/05/11 03:45:49;;;;;;;2.35;0.63;;;;;;;;;;5019972;28;20095;-47
2023/05/11 03:48:15;;;;;;;2.13;0.55;;;;;;;;;;5019856;28;20099;-40
2023/05/11 03:50:42;;;;;;;1.75;0.65;;;;;;;;;;5020251;28;20030;-40
2023/05/11 03:53:07;;;;;;;1.63;0.52;;;;;;;;;;5021211;28;20021;-49
2023/05/11 03:55:33;;;;;;;1.42;0.43;;;;;;;;;;5021293;28;20565;-47
2023/05/11 03:57:59;;;;;;;0.85;0.43;;;;;;;;;;5024292;28;20029;-40
2023/05/11 04:00:25;;;;;;;0.40;0.38;;;;;;;;;;5024364;28;20040;-45
2023/05/11 04:02:51;;;;;;;2.83;0.52;;;;;;;;;;5024193;28;20022;-44
2023/05/11 04:05:17;;;;;;;2.78;0.60;;;;;;;;;;5024481;28;20034;-43
2023/05/11 04:07:43;;;;;;;1.30;0.70;;;;;;;;;;5021426;28;20030;-42
2023/05/11 04:10:08;;;;;;;1.15;0.55;;;;;;;;;;5024774;28;20034;-40
2023/05/11 04:12:33;;;;;;;1.70;0.50;;;;;;;;;;5024743;28;20046;-40
2023/05/11 04:14:59;;;;;;;0.68;0.38;;;;;;;;;;5024361;28;20041;-40
2023/05/11 04:17:24;;;;;;;1.67;0.52;;;;;;;;;;5025737;28;20037;-46
2023/05/11 04:19:50;;;;;;;0.75;0.50;;;;;;;;;;5025638;28;20027;-44
2023/05/11 04:22:15;;;;;;;1.98;0.38;;;;;;;;;;5022661;28;20092;-47
2023/05/11 04:24:41;;;;;;;1.50;0.90;;;;;;;;;;5020337;28;20037;-42
2023/05/11 04:27:06;;;;;;;2.75;0.85;;;;;;;;;;5026374;28;20131;-41
2023/05/11 04:29:31;;;;;;;0.55;0.50;;;;;;;;;;5023793;28;20076;-40
2023/05/11 04:31:57;;;;;;;1.55;0.40;;;;;;;;;;5024661;28;20533;-43
2023/05/11 04:34:22;;;;;;;1.48;0.50;;;;;;;;;;5022630;28;20445;-40
2023/05/11 04:36:48;;;;;;;0.95;0.70;;;;;;;;;;5022051;28;20116;-50
2023/05/11 04:39:15;;;;;;;2.03;0.40;;;;;;;;;;5022222;28;20036;-48
2023/05/11 04:41:41;;;;;;;1.23;0.57;;;;;;;;;;5022552;28;20219;-44
2023/05/11 04:44:07;;;;;;;3.40;0.40;;;;;;;;;;5022547;28;20096;-45
2023/05/11 04:46:32;;;;;;;4.07;0.60;;;;;;;;;;5019258;28;20406;-41
2023/05/11 04:48:57;;;;;;;1.27;0.60;;;;;;;;;;5023571;28;20026;-44
2023/05/11 04:51:23;;;;;;;3.65;0.90;;;;;;;;;;5023133;28;20041;-49
2023/05/11 04:53:48;;;;;;;1.48;0.60;;;;;;;;;;5022420;28;20558;-48
2023/05/11 04:56:13;;;;;;;1.33;0.40;;;;;;;;;;5024013;28;20084;-47
2023/05/11 04:58:39;;;;;;;1.33;0.63;;;;;;;;;;5023636;28;20483;-45
2023/05/11 05:01:04;;;;;;;0.82;0.40;;;;;;;;;;5022529;28;20073;-44
2023/05/11 05:03:30;;;;;;;1.95;0.60;;;;;;;;;;5023821;28;20079;-46
2023/05/11 05:05:55;;;;;;;3.15;0.73;;;;;;;;;;5021932;28;20037;-47
2023/05/11 05:08:20;;;;;;;1.02;0.50;;;;;;;;;;5023124;28;20485;-43
2023/05/11 05:10:46;;;;;;;2.97;0.70;;;;;;;;;;5019265;28;20034;-41
2023/05/11 05:13:12;;;;;;;1.17;0.73;;;;;;;;;;5021697;28;20080;-43
2023/05/11 05:15:37;;;;;;;3.50;0.70;;;;;;;;;;5021249;28;20065;-45
2023/05/11 05:18:02;;;;;;;1.02;0.50;;;;;;;;;;5022923;28;20064;-45
2023/05/11 05:20:28;;;;;;;1.88;0.70;;;;;;;;;;5024689;28;20034;-45
2023/05/11 05:22:54;;;;;;;0.88;0.50;;;;;;;;;;5022404;28;20033;-40
2023/05/11 05:25:20;;;;;;;1.05;0.40;;;;;;;;;;5024475;28;20037;-47
2023/05/11 05:27:45;;;;;;;3.92;0.65;;;;;;;;;;5022459;28;20079;-40
2023/05/11 05:30:11;;;;;;;0.85;0.70;;;;;;;;;;5019484;28;20037;-42
2023/05/11 05:32:36;;;;;;;3.47;0.50;;;;;;;;;;5023954;28;20107;-44
2023/05/11 05:35:02;;;;;;;3.10;0.50;;;;;;;;;;5023913;28;20478;-46
2023/05/11 05:37:28;;;;;;;1.63;0.65;;;;;;;;;;5021724;28;20041;-46
2023/05/11 05:39:53;;;;;;;3.67;0.68;;;;;;;;;;5022788;28;20367;-44
2023/05/11 05:42:19;;;;;;;0.40;0.40;;;;;;;;;;5020951;28;20424;-44
2023/05/11 05:44:44;;;;;;;2.33;0.50;;;;;;;;;;5019775;28;20064;-40
2023/05/11 05:47:10;;;;;;;0.40;0.30;;;;;;;;;;5020499;28;20041;-47
2023/05/11 05:49:35;;;;;;;0.95;0.60;;;;;;;;;;5024198;28;20026;-48
2023/05/11 05:52:01;;;;;;;1.77;0.80;;;;;;;;;;5023073;28;20041;-48
2023/05/11 05:54:26;;;;;;;0.90;0.50;;;;;;;;;;5023628;28;20042;-47
2023/05/11 05:56:51;;;;;;;1.58;0.60;;;;;;;;;;5020933;28;20124;-37
2023/05/11 05:59:20;;;;;;;0.93;0.60;;;;;;;;;;5022139;28;20129;-41
2023/05/11 06:01:46;;;;;;;3.25;0.60;;;;;;;;;;5021073;28;20056;-41
2023/05/11 06:04:12;;;;;;;1.85;0.70;;;;;;;;;;5022712;28;20087;-44
2023/05/11 06:06:37;;;;;;;2.40;0.80;;;;;;;;;;5020268;28;20062;-45
2023/05/11 06:09:03;;;;;;;2.45;0.60;;;;;;;;;;5021301;28;20116;-40
2023/05/11 06:11:28;;;;;;;1.00;0.70;;;;;;;;;;5021773;28;20095;-42
2023/05/11 06:13:53;;;;;;;1.45;0.82;;;;;;;;;;5017882;28;20030;-41
2023/05/11 06:16:19;;;;;;;1.27;0.50;;;;;;;;;;5021183;28;20064;-40
2023/05/11 06:18:45;;;;;;;0.88;0.60;;;;;;;;;;5021699;28;20224;-41
2023/05/11 06:21:10;;;;;;;4.85;0.65;;;;;;;;;;5017985;28;20033;-40
2023/05/11 06:23:36;;;;;;;3.80;0.93;;;;;;;;;;5022688;28;20037;-47
2023/05/11 06:26:01;;;;;;;1.00;0.60;;;;;;;;;;5021816;28;20064;-44
2023/05/11 06:28:28;;;;;;;4.25;0.70;;;;;;;;;;5023135;28;20482;-41
2023/05/11 06:30:57;;;;;;;1.77;0.55;;;;;;;;;;5021322;28;20087;-44
2023/05/11 06:33:23;;;;;;;1.08;0.70;;;;;;;;;;5024792;28;20030;-43
2023/05/11 06:35:48;;;;;;;3.85;0.43;;;;;;;;;;5021840;28;20566;-43
2023/05/11 06:38:14;;;;;;;6.03;0.90;;;;;;;;;;5018454;28;20116;-41
2023/05/11 06:40:40;;;;;;;0.85;0.60;;;;;;;;;;5020725;28;20383;-46
2023/05/11 06:43:05;;;;;;;0.70;0.60;;;;;;;;;;5018471;28;20045;-40
2023/05/11 06:45:30;;;;;;;0.95;0.60;;;;;;;;;;5020018;28;20080;-42
2023/05/11 06:47:56;;;;;;;1.10;0.65;;;;;;;;;;5021723;28;20039;-42
2023/05/11 06:50:21;;;;;;;5.32;0.60;;;;;;;;;;5021060;28;20036;-40
2023/05/11 06:52:46;;;;;;;2.33;0.80;;;;;;;;;;5021534;28;20087;-45
2023/05/11 06:55:14;;;;;;;1.48;0.50;;;;;;;;;;5023773;28;20049;-43
2023/05/11 06:57:40;;;;;;;1.80;0.60;;;;;;;;;;5021894;28;20038;-40
2023/05/11 07:00:06;;;;;;;1.38;0.47;;;;;;;;;;5020393;28;20053;-43
2023/05/11 07:02:31;;;;;;;3.65;0.55;;;;;;;;;;5022722;28;20041;-43
2023/05/11 07:04:57;;;;;;;2.33;0.38;;;;;;;;;;5021477;28;20033;-41
2023/05/11 07:07:22;;;;;;;0.70;0.60;;;;;;;;;;5022238;28;20096;-41
2023/05/11 07:09:49;;;;;;;2.85;0.68;;;;;;;;;;5020167;28;20115;-41
2023/05/11 07:12:14;;;;;;;5.70;0.77;;;;;;;;;;5017713;28;20482;-41
2023/05/11 07:14:40;;;;;;;1.90;0.70;;;;;;;;;;5021090;28;20032;-41
2023/05/11 07:17:05;;;;;;;3.65;0.70;;;;;;;;;;5022560;28;20529;-42
2023/05/11 07:19:31;;;;;;;2.83;0.60;;;;;;;;;;5022225;28;20029;-41
2023/05/11 07:21:56;;;;;;;1.35;0.70;;;;;;;;;;5020862;28;20034;-42
2023/05/11 07:24:22;;;;;;;1.05;0.68;;;;;;;;;;5020634;28;20450;-43
2023/05/11 07:26:48;;;;;;;0.43;0.43;;;;;;;;;;5016721;28;20443;-41
2023/05/11 07:29:14;;;;;;;0.47;0.47;;;;;;;;;;5019183;28;20025;-41
2023/05/11 07:31:40;;;;;;;1.38;0.77;;;;;;;;;;5020685;28;20032;-41
2023/05/11 07:34:05;;;;;;;1.65;0.52;;;;;;;;;;5021626;28;20030;-41
2023/05/11 07:36:30;;;;;;;1.10;0.50;;;;;;;;;;5025610;28;20041;-46
2023/05/11 07:38:58;;;;;;;1.85;0.82;;;;;;;;;;5025366;28;20056;-41
2023/05/11 07:41:25;;;;;;;2.22;0.43;;;;;;;;;;5022639;28;20045;-45
2023/05/11 07:43:51;;;;;;;1.35;0.70;;;;;;;;;;5022968;28;20064;-41
2023/05/11 07:46:17;;;;;;;1.30;0.55;;;;;;;;;;5025789;28;20049;-45
2023/05/11 07:48:42;;;;;;;0.88;0.80;;;;;;;;;;5023519;28;20437;-41
2023/05/11 07:51:07;;;;;;;3.38;0.55;;;;;;;;;;5023679;28;20037;-43
2023/05/11 07:53:33;;;;;;;2.78;0.80;;;;;;;;;;5022525;28;20516;-44
2023/05/11 07:55:59;;;;;;;7.25;0.55;;;;;;;;;;5025193;28;20045;-41
2023/05/11 07:58:25;;;;;;;5.93;0.63;;;;;;;;;;5026629;28;20041;-43
2023/05/11 08:00:50;;;;;;;0.40;0.40;;;;;;;;;;5021248;28;20103;-41
2023/05/11 08:03:16;;;;;;;3.45;0.70;;;;;;;;;;5022494;28;20027;-47
2023/05/11 08:05:41;;;;;;;3.78;0.55;;;;;;;;;;5025743;28;20080;-42
2023/05/11 08:08:07;;;;;;;0.52;0.45;;;;;;;;;;5023995;28;20022;-41
2023/05/11 08:10:32;;;;;;;4.72;0.70;;;;;;;;;;5025308;28;20049;-44
2023/05/11 08:12:58;;;;;;;1.02;0.60;;;;;;;;;;5021757;28;20586;-44
2023/05/11 08:15:23;;;;;;;0.77;0.50;;;;;;;;;;5023639;28;20026;-44
2023/05/11 08:17:49;;;;;;;3.42;0.70;;;;;;;;;;5025350;28;20062;-41
2023/05/11 08:20:14;;;;;;;1.27;0.57;;;;;;;;;;5022250;28;20508;-41
2023/05/11 08:22:40;;;;;;;1.75;0.90;;;;;;;;;;5025600;28;20037;-44
2023/05/11 08:25:06;;;;;;;7.53;1.45;;;;;;;;;;5024968;28;20080;-42
2023/05/11 08:27:31;;;;;;;3.92;1.25;;;;;;;;;;5023089;28;20514;-42
2023/05/11 08:29:57;;;;;;;7.80;0.85;;;;;;;;;;5027278;28;20071;-44
2023/05/11 08:32:22;;;;;;;7.55;0.80;;;;;;;;;;5023509;28;20395;-45
2023/05/11 08:34:48;;;;;;;2.53;1.70;;;;;;;;;;5026749;28;20021;-46
2023/05/11 08:37:13;;;;;;;0.75;0.47;;;;;;;;;;5021679;28;20045;-43
2023/05/11 08:39:39;;;;;;;2.90;0.77;;;;;;;;;;5025766;28;20028;-44
2023/05/11 08:42:05;;;;;;;2.05;0.45;;;;;;;;;;5026311;28;20425;-42
2023/05/11 08:44:36;;;;;;;1.52;0.65;;;;;;;;;;5021248;28;20305;-41
2023/05/11 08:47:04;;;;;;;1.55;0.60;;;;;;;;;;5021569;28;20046;-43
2023/05/11 08:49:29;;;;;;;1.35;0.70;;;;;;;;;;5024779;28;20025;-41
2023/05/11 08:51:55;;;;;;;1.95;0.60;;;;;;;;;;5023886;28;20033;-41
2023/05/11 08:54:20;;;;;;;4.97;0.60;;;;;;;;;;5021383;28;20028;-42
2023/05/11 08:56:46;;;;;;;0.57;0.52;;;;;;;;;;5024673;28;20548;-41
2023/05/11 08:59:13;;;;;;;4.45;0.70;;;;;;;;;;5026273;28;20077;-41
2023/05/11 09:01:40;;;;;;;2.58;0.73;;;;;;;;;;5022704;28;20541;-42
2023/05/11 09:04:05;;;;;;;0.65;0.50;;;;;;;;;;5025743;28;20032;-42
2023/05/11 09:06:32;;;;;;;1.23;0.80;;;;;;;;;;5018341;28;20445;-41
2023/05/11 09:08:58;;;;;;;2.90;0.63;;;;;;;;;;5021998;28;20033;-44
2023/05/11 09:11:24;;;;;;;1.45;0.60;;;;;;;;;;5021922;28;20033;-43
2023/05/11 09:13:50;;;;;;;2.40;0.52;;;;;;;;;;5023988;28;20033;-41
2023/05/11 09:16:16;;;;;;;0.98;0.60;;;;;;;;;;5017107;28;20049;-41
2023/05/11 09:18:48;;;;;;;4.15;0.73;;;;;;;;;;5024947;28;20036;-43
2023/05/11 09:21:14;;;;;;;4.43;0.73;;;;;;;;;;5021011;28;20084;-41
2023/05/11 09:23:39;;;;;;;1.10;0.50;;;;;;;;;;5022632;28;20053;-42
2023/05/11 09:26:13;;;;;;;3.38;0.80;;;;;;;;;;5016905;28;20131;-41
2023/05/11 09:28:47;;;;;;;0.93;0.50;;;;;;;;;;5023694;28;20045;-43
2023/05/11 09:31:44;;;;;;;9.82;0.70;;;;;;;;;;5022976;28;20045;-41
2023/05/11 09:34:16;;;;;;;2.78;0.70;;;;;;;;;;5024433;28;20064;-41
2023/05/11 09:36:42;;;;;;;;;;;;;;;;;;5024124;28;20560;-41
2023/05/11 09:39:08;;;;;;;3.70;0.35;;;;;;;;;;5022009;28;19917;-42
2023/05/11 09:41:33;;;;;;;2.08;0.98;;;;;;;;;;5021663;28;20042;-46
2023/05/11 09:44:11;;;;;;;5.57;0.65;;;;;;;;;;5021391;28;20037;-43
2023/05/11 09:46:41;;;;;;;4.13;0.93;;;;;;;;;;5018132;28;20037;-41
2023/05/11 09:49:07;;;;;;;0.77;0.40;;;;;;;;;;5022232;28;20025;-41
2023/05/11 09:51:35;;;;;;;0.68;0.38;;;;;;;;;;5023146;28;20126;-42
2023/05/11 09:54:13;;;;;;;2.75;0.40;;;;;;;;;;5022398;28;20099;-41
2023/05/11 09:56:49;;;;;;;1.50;0.40;;;;;;;;;;5021752;28;20058;-42
2023/05/11 09:59:17;;;;;;;2.00;0.80;;;;;;;;;;5022541;28;20560;-41
2023/05/11 10:01:43;;;;;;;1.10;0.60;;;;;;;;;;5018741;28;20045;-42
2023/05/11 10:04:08;;;;;;;0.52;0.30;;;;;;;;;;5023895;28;20028;-43
2023/05/11 10:06:48;;;;;;;3.15;0.90;;;;;;;;;;5018927;28;20596;-43
2023/05/11 10:09:16;;;;;;;5.53;1.17;;;;;;;;;;5021193;28;20482;-45
2023/05/11 10:11:44;;;;;;;1.55;0.30;;;;;;;;;;5023643;28;20103;-45
2023/05/11 10:14:12;;;;;;;0.43;0.35;;;;;;;;;;5021293;28;20029;-42
2023/05/11 10:16:42;;;;;;;1.85;0.40;;;;;;;;;;5022561;28;20040;-41
2023/05/11 10:19:08;;;;;;;0.70;0.70;;;;;;;;;;5024344;28;20069;-42
2023/05/11 10:21:34;;;;;;;0.90;0.45;;;;;;;;;;5021428;28;20045;-41
2023/05/11 10:24:01;;;;;;;1.67;0.38;;;;;;;;;;5024242;28;20030;-42
2023/05/11 10:26:29;;;;;;;1.05;0.40;;;;;;;;;;5022439;28;20069;-45
2023/05/11 10:28:55;;;;;;;4.32;0.40;;;;;;;;;;5021840;28;20083;-45
2023/05/11 10:31:23;;;;;;;2.75;0.50;;;;;;;;;;5017889;28;20437;-42
2023/05/11 10:33:50;;;;;;;0.38;0.38;;;;;;;;;;5020846;28;20128;-41
2023/05/11 10:36:17;;;;;;;4.20;0.68;;;;;;;;;;5018791;28;20048;-41
2023/05/11 10:38:42;;;;;;;0.50;0.30;;;;;;;;;;5021901;28;20482;-41
2023/05/11 10:41:22;;;;;;;0.30;0.30;;;;;;;;;;5019875;28;20080;-41
2023/05/11 10:44:15;;;;;;;0.63;0.30;;;;;;;;;;5021481;28;20029;-41
2023/05/11 10:47:05;;;;;;;0.35;0.35;;;;;;;;;;5018569;28;20034;-41
2023/05/11 10:49:45;;;;;;;1.17;0.40;;;;;;;;;;5020340;28;20099;-42
2023/05/11 10:52:35;;;;;;;2.28;0.40;;;;;;;;;;5021659;28;20052;-41
2023/05/11 10:55:21;;;;;;;5.07;0.50;;;;;;;;;;5021774;28;20428;-43
2023/05/11 10:58:19;;;;;;;1.25;0.47;;;;;;;;;;5017883;28;20045;-42
2023/05/11 11:00:50;;;;;;;0.35;0.28;;;;;;;;;;4962556;28;20126;-41
2023/05/11 11:03:16;;;;;;;1.55;0.35;;;;;;;;;;4964864;28;20110;-43
2023/05/11 11:05:43;;;;;;;2.72;0.35;;;;;;;;;;4961528;28;20043;-45
2023/05/11 11:08:09;;;;;;;0.98;0.28;;;;;;;;;;4966279;28;20027;-42
2023/05/11 11:10:39;;;;;;;1.38;0.30;;;;;;;;;;4967426;28;20047;-42
2023/05/11 11:13:08;;;;;;;0.30;0.30;;;;;;;;;;4969030;28;20618;-41
2023/05/11 11:16:05;;;;;;;1.38;0.10;;;;;;;;;;4968679;28;20039;-41
2023/05/11 11:18:34;;;;;;;1.50;0.50;;;;;;;;;;4967194;28;20031;-43
2023/05/11 11:21:00;;;;;;;1.02;0.30;;;;;;;;;;4965630;28;20066;-43
2023/05/11 11:23:43;;;;;;;1.75;0.40;;;;;;;;;;4967164;28;22341;-42
2023/05/11 11:26:11;;;;;;;0.20;0.15;;;;;;;;;;4967927;28;20117;-42
2023/05/11 11:29:00;;;;;;;3.38;0.30;;;;;;;;;;4967521;28;20178;-42
2023/05/11 11:31:30;;;;;;;3.17;0.38;;;;;;;;;;4970498;28;20400;-42
2023/05/11 11:33:59;;;;;;;1.42;0.40;;;;;;;;;;4963004;28;20025;-42
2023/05/11 11:37:05;;;;;;;0.30;0.28;;;;;;;;;;4995514;28;20133;-45
2023/05/11 11:39:42;;;;;;;3.05;0.30;;;;;;;;;;5025992;28;20475;-47
2023/05/11 11:42:31;;;;;;;3.22;0.22;;;;;;;;;;5022900;28;20577;-47
2023/05/11 11:45:30;;;;;;;1.27;0.38;;;;;;;;;;5023296;28;20057;-42
2023/05/11 11:48:22;;;;;;;2.03;0.32;;;;;;;;;;5022472;28;20131;-44
2023/05/11 11:50:48;;;;;;;0.40;0.17;;;;;;;;;;5023494;28;20037;-41
2023/05/11 11:53:36;;;;;;;1.80;0.20;;;;;;;;;;5025097;28;20033;-42
2023/05/11 11:56:06;;;;;;;0.30;0.30;;;;;;;;;;5023568;28;20046;-41
2023/05/11 11:58:41;;;;;;;10.35;0.60;;;;;;;;;;5019770;28;20053;-42
2023/05/11 12:01:08;;;;;;;3.13;0.30;;;;;;;;;;5020302;28;20038;-42
2023/05/11 12:03:38;;;;;;;0.47;0.22;;;;;;;;;;5023847;28;21967;-42
2023/05/11 12:06:06;;;;;;;0.55;0.30;;;;;;;;;;5025593;28;20045;-44
2023/05/11 12:08:32;;;;;;;4.82;0.70;;;;;;;;;;5023908;28;20131;-43
2023/05/11 12:10:59;;;;;;;2.95;0.47;;;;;;;;;;5027444;28;20045;-42
2023/05/11 12:13:24;;;;;;;1.00;0.30;;;;;;;;;;5024995;28;20044;-43
2023/05/11 12:16:12;;;;;;;0.60;0.17;;;;;;;;;;5024570;28;20041;-46
2023/05/11 12:18:38;;;;;;;1.10;0.35;;;;;;;;;;5023364;28;20083;-44
2023/05/11 12:21:03;;;;;;;0.75;0.30;;;;;;;;;;5024413;28;20394;-43
2023/05/11 12:23:29;;;;;;;3.50;0.28;;;;;;;;;;5023290;28;20025;-43
2023/05/11 12:26:01;;;;;;;0.98;0.30;;;;;;;;;;5023843;28;20399;-41
2023/05/11 12:28:27;;;;;;;;;;;;;;;;;;5025977;28;20025;-42
2023/05/11 12:30:56;;;;;;;0.30;0.20;;;;;;;;;;5021574;28;20544;-42
2023/05/11 12:33:22;;;;;;;0.93;0.30;;;;;;;;;;5024513;28;20405;-42
2023/05/11 12:35:52;;;;;;;2.28;0.30;;;;;;;;;;5024700;28;20038;-41
2023/05/11 12:38:17;;;;;;;1.83;0.32;;;;;;;;;;5024523;28;20048;-43
2023/05/11 12:40:51;;;;;;;0.57;0.30;;;;;;;;;;5025084;28;20124;-42
2023/05/11 12:43:19;;;;;;;1.75;0.35;;;;;;;;;;5021960;28;20520;-43
2023/05/11 12:45:45;;;;;;;3.88;0.38;;;;;;;;;;5022239;28;20063;-41
2023/05/11 12:48:11;;;;;;;1.85;0.52;;;;;;;;;;5023342;28;20021;-41
2023/05/11 12:50:41;;;;;;;1.35;0.28;;;;;;;;;;5024947;28;20037;-43
2023/05/11 12:53:14;;;;;;;0.45;0.15;;;;;;;;;;5023033;28;20110;-41
2023/05/11 12:55:40;;;;;;;2.08;0.40;;;;;;;;;;5022206;28;20394;-42
2023/05/11 12:58:07;;;;;;;0.13;0.13;;;;;;;;;;5023148;28;20497;-40
2023/05/11 13:00:33;;;;;;;5.10;0.30;;;;;;;;;;5023998;28;20036;-41
2023/05/11 13:02:59;;;;;;;1.50;0.20;;;;;;;;;;5021986;28;20029;-44
2023/05/11 13:05:26;;;;;;;2.15;0.30;;;;;;;;;;5021316;28;20108;-41
2023/05/11 13:08:03;;;;;;;1.20;0.40;;;;;;;;;;5022442;28;20060;-41
2023/05/11 13:10:29;;;;;;;1.98;0.28;;;;;;;;;;5022255;28;20024;-41
2023/05/11 13:12:55;;;;;;;0.50;0.30;;;;;;;;;;5022682;28;20025;-41
2023/05/11 13:15:22;;;;;;;1.40;0.30;;;;;;;;;;5019770;28;20058;-40
2023/05/11 13:17:56;;;;;;;3.20;0.30;;;;;;;;;;5024139;28;20038;-45
2023/05/11 13:20:28;;;;;;;0.20;0.20;;;;;;;;;;5022161;28;20040;-40
2023/05/11 13:23:10;;;;;;;5.63;0.40;;;;;;;;;;5023811;28;20116;-40
2023/05/11 13:25:45;;;;;;;1.30;0.22;;;;;;;;;;5021835;28;20044;-43
2023/05/11 13:28:12;;;;;;;0.73;0.30;;;;;;;;;;5019162;28;20087;-41
2023/05/11 13:30:38;;;;;;;0.65;0.20;;;;;;;;;;5023518;28;20361;-46
2023/05/11 13:33:03;;;;;;;4.72;0.50;;;;;;;;;;5022430;28;20524;-44
2023/05/11 13:35:29;;;;;;;5.32;0.40;;;;;;;;;;5022661;28;20091;-45
2023/05/11 13:37:55;;;;;;;6.40;0.40;;;;;;;;;;5021714;28;20037;-41
2023/05/11 13:40:20;;;;;;;3.53;0.38;;;;;;;;;;5019921;28;20029;-45
2023/05/11 13:42:45;;;;;;;0.25;0.20;;;;;;;;;;5023378;28;20044;-44
2023/05/11 13:45:11;;;;;;;5.97;0.30;;;;;;;;;;5023273;28;20033;-43
2023/05/11 13:47:36;;;;;;;0.28;0.28;;;;;;;;;;5021772;28;20034;-45
2023/05/11 13:50:03;;;;;;;2.97;0.35;;;;;;;;;;5023747;28;20033;-46
2023/05/11 13:52:28;;;;;;;0.40;0.15;;;;;;;;;;5021393;28;20045;-41
2023/05/11 13:54:55;;;;;;;3.20;0.60;;;;;;;;;;5023028;28;20025;-41
2023/05/11 13:57:20;;;;;;;0.95;0.55;;;;;;;;;;5021913;28;20033;-42
2023/05/11 13:59:46;;;;;;;2.25;0.20;;;;;;;;;;5023644;28;20045;-44
2023/05/11 14:02:11;;;;;;;3.63;0.32;;;;;;;;;;5022793;28;20045;-43
2023/05/11 14:04:38;;;;;;;0.00;0.00;;;;;;;;;;5022987;28;22320;-44
2023/05/11 14:07:03;;;;;;;1.05;0.30;;;;;;;;;;5024359;28;20042;-41
2023/05/11 14:09:29;;;;;;;2.13;0.30;;;;;;;;;;5021667;28;20037;-41
2023/05/11 14:11:55;;;;;;;0.10;0.00;;;;;;;;;;5023274;28;20467;-43
2023/05/11 14:14:20;;;;;;;3.58;0.20;;;;;;;;;;5021951;28;20049;-41
2023/05/11 14:16:46;;;;;;;1.92;0.75;;;;;;;;;;5023197;28;20041;-40
2023/05/11 14:19:11;;;;;;;2.22;0.30;;;;;;;;;;5021611;28;20386;-41
2023/05/11 14:21:36;;;;;;;1.35;0.25;;;;;;;;;;5021337;28;20033;-41
2023/05/11 14:24:02;;;;;;;2.60;0.30;;;;;;;;;;5021277;28;20478;-42
2023/05/11 14:26:28;;;;;;;1.25;0.20;;;;;;;;;;5023097;28;20743;-41
2023/05/11 14:28:53;;;;;;;0.80;0.30;;;;;;;;;;5021427;28;20040;-41
2023/05/11 14:31:19;;;;;;;2.38;0.10;;;;;;;;;;5020485;28;20052;-41
2023/05/11 14:33:44;;;;;;;0.28;0.20;;;;;;;;;;5024484;28;20022;-41
2023/05/11 14:36:10;;;;;;;0.10;0.10;;;;;;;;;;5017792;28;20494;-43
2023/05/11 14:38:35;;;;;;;2.85;0.30;;;;;;;;;;5021618;28;20057;-40
2023/05/11 14:41:01;;;;;;;0.40;0.40;;;;;;;;;;5016577;28;20034;-41
2023/05/11 14:43:26;;;;;;;1.77;0.32;;;;;;;;;;5022237;28;20530;-41
2023/05/11 14:45:52;;;;;;;3.05;0.30;;;;;;;;;;5021678;28;20072;-42
2023/05/11 14:48:18;;;;;;;4.57;0.20;;;;;;;;;;5022470;28;20030;-41